Time;durP1;ratioP1;P1;durP2;ratioP2;P2;SDS_P1;SDS_P2;PMS_P1;PMS_P2;Temp;Humidity;BMP_temperature;BMP_pressure;BME280_temperature;BME280_humidity;BME280_pressure;Samples;Min_cycle;Max_cycle;Signal;HPM_P1;HPM_P2
2022/07/26 00:00:56;;;;;;;5.03;2.50;;;;;;;;;;5061706;28;20881;-79
2022/07/26 00:03:24;;;;;;;6.23;1.90;;;;;;;;;;5062429;28;20485;-79
2022/07/26 00:05:51;;;;;;;5.33;3.20;;;;;;;;;;5061076;28;20818;-79
2022/07/26 00:08:59;;;;;;;5.67;2.73;;;;;;;;;;5061895;28;20491;-79
2022/07/26 00:11:32;;;;;;;7.03;2.73;;;;;;;;;;5022821;28;20538;-78
2022/07/26 00:13:59;;;;;;;5.50;1.80;;;;;;;;;;5061338;28;20445;-79
2022/07/26 00:16:27;;;;;;;7.10;1.80;;;;;;;;;;5061551;28;20453;-79
2022/07/26 00:18:54;;;;;;;3.47;2.63;;;;;;;;;;5061280;28;20510;-79
2022/07/26 00:21:22;;;;;;;6.77;2.40;;;;;;;;;;5060716;28;20453;-79
2022/07/26 00:23:50;;;;;;;6.70;2.57;;;;;;;;;;5061745;28;20925;-79
2022/07/26 00:26:17;;;;;;;5.93;2.17;;;;;;;;;;5061475;28;20495;-79
2022/07/26 00:28:47;;;;;;;4.50;1.87;;;;;;;;;;5061306;28;20453;-79
2022/07/26 00:31:14;;;;;;;6.00;2.03;;;;;;;;;;5060704;28;20457;-79
2022/07/26 00:33:42;;;;;;;9.00;2.10;;;;;;;;;;5061011;28;20450;-79
2022/07/26 00:36:10;;;;;;;5.30;2.13;;;;;;;;;;5061824;28;20453;-79
2022/07/26 00:38:37;;;;;;;6.30;1.83;;;;;;;;;;5060536;28;20727;-79
2022/07/26 00:41:05;;;;;;;4.43;2.13;;;;;;;;;;5061549;28;20869;-79
2022/07/26 00:43:32;;;;;;;4.17;1.80;;;;;;;;;;5060698;28;20987;-78
2022/07/26 00:46:02;;;;;;;6.60;2.60;;;;;;;;;;5060473;28;20465;-79
2022/07/26 00:48:30;;;;;;;5.63;2.17;;;;;;;;;;5060753;28;20458;-79
2022/07/26 00:50:58;;;;;;;5.50;1.90;;;;;;;;;;5060569;28;20717;-79
2022/07/26 00:53:25;;;;;;;5.17;2.10;;;;;;;;;;5061460;28;20454;-79
2022/07/26 00:55:53;;;;;;;4.63;2.20;;;;;;;;;;5061197;28;20753;-78
2022/07/26 00:58:21;;;;;;;4.57;2.43;;;;;;;;;;5060840;28;20449;-79
2022/07/26 01:00:48;;;;;;;7.67;2.43;;;;;;;;;;5060996;28;20713;-80
2022/07/26 01:03:17;;;;;;;2.80;1.90;;;;;;;;;;5061649;28;20524;-79
2022/07/26 01:05:45;;;;;;;9.00;2.30;;;;;;;;;;5060406;28;20453;-79
2022/07/26 01:08:12;;;;;;;5.43;2.30;;;;;;;;;;5059732;28;20484;-79
2022/07/26 01:10:42;;;;;;;5.20;2.00;;;;;;;;;;5062321;28;20453;-79
2022/07/26 01:13:10;;;;;;;5.50;2.50;;;;;;;;;;5059842;28;20465;-79
2022/07/26 01:15:37;;;;;;;6.53;2.17;;;;;;;;;;5061547;28;20519;-79
2022/07/26 01:18:05;;;;;;;5.90;2.30;;;;;;;;;;5060958;28;20486;-79
2022/07/26 01:20:34;;;;;;;4.67;2.17;;;;;;;;;;5060490;28;20457;-79
2022/07/26 01:23:03;;;;;;;6.93;1.93;;;;;;;;;;5061054;28;20485;-79
2022/07/26 01:25:31;;;;;;;7.10;2.10;;;;;;;;;;5060160;28;20986;-79
2022/07/26 01:27:58;;;;;;;4.53;2.20;;;;;;;;;;5060891;28;20457;-79
2022/07/26 01:30:26;;;;;;;7.80;2.00;;;;;;;;;;5059700;28;20507;-79
2022/07/26 01:32:53;;;;;;;7.20;3.17;;;;;;;;;;5060332;28;20714;-79
2022/07/26 01:35:21;;;;;;;6.17;2.67;;;;;;;;;;5060037;28;20457;-79
2022/07/26 01:37:48;;;;;;;5.20;2.47;;;;;;;;;;5060405;28;20457;-79
2022/07/26 01:40:17;;;;;;;7.30;2.50;;;;;;;;;;5060538;28;20583;-79
2022/07/26 01:42:45;;;;;;;13.57;2.40;;;;;;;;;;5059398;28;20493;-78
2022/07/26 01:45:13;;;;;;;6.33;2.60;;;;;;;;;;5059344;28;20449;-79
2022/07/26 01:47:41;;;;;;;4.00;1.90;;;;;;;;;;5059403;28;20523;-78
2022/07/26 01:50:09;;;;;;;7.77;1.67;;;;;;;;;;5059458;28;20530;-78
2022/07/26 01:52:38;;;;;;;6.83;2.77;;;;;;;;;;5060306;28;20446;-79
2022/07/26 01:55:06;;;;;;;4.70;1.97;;;;;;;;;;5060706;28;20446;-79
2022/07/26 01:57:35;;;;;;;12.07;2.40;;;;;;;;;;5061425;28;20515;-79
2022/07/26 02:00:02;;;;;;;9.73;2.20;;;;;;;;;;5060398;28;20450;-79
2022/07/26 02:02:30;;;;;;;6.00;2.03;;;;;;;;;;5060457;28;20492;-79
2022/07/26 02:05:01;;;;;;;6.23;2.50;;;;;;;;;;5060239;28;20857;-79
2022/07/26 02:07:29;;;;;;;6.73;2.10;;;;;;;;;;5058376;28;20839;-79
2022/07/26 02:09:57;;;;;;;6.50;2.30;;;;;;;;;;5060004;28;20445;-78
2022/07/26 02:12:25;;;;;;;4.73;2.80;;;;;;;;;;5059489;28;20792;-79
2022/07/26 02:14:53;;;;;;;8.67;1.97;;;;;;;;;;5059167;28;20458;-79
2022/07/26 02:17:21;;;;;;;5.53;2.40;;;;;;;;;;5058358;28;20527;-79
2022/07/26 02:19:49;;;;;;;9.00;1.90;;;;;;;;;;5059694;28;20453;-79
2022/07/26 02:22:17;;;;;;;4.10;1.90;;;;;;;;;;5060023;28;20459;-78
2022/07/26 02:24:45;;;;;;;6.43;2.00;;;;;;;;;;5059016;28;20575;-78
2022/07/26 02:27:13;;;;;;;6.87;1.90;;;;;;;;;;5058304;28;20453;-79
2022/07/26 02:29:40;;;;;;;8.37;2.10;;;;;;;;;;5059669;28;20769;-79
2022/07/26 02:32:09;;;;;;;5.73;1.60;;;;;;;;;;5058076;28;20785;-78
2022/07/26 02:34:37;;;;;;;4.43;2.40;;;;;;;;;;5059425;28;20457;-78
2022/07/26 02:37:05;;;;;;;8.20;1.90;;;;;;;;;;5058121;28;20484;-78
2022/07/26 02:39:32;;;;;;;8.17;2.27;;;;;;;;;;5057763;28;20457;-79
2022/07/26 02:42:00;;;;;;;4.17;1.77;;;;;;;;;;5058362;28;20454;-78
2022/07/26 02:44:29;;;;;;;6.00;2.20;;;;;;;;;;5058317;28;20511;-79
2022/07/26 02:46:56;;;;;;;8.20;2.50;;;;;;;;;;5059520;28;20867;-79
2022/07/26 02:49:25;;;;;;;7.97;2.27;;;;;;;;;;5058275;28;20465;-79
2022/07/26 02:51:53;;;;;;;8.83;3.00;;;;;;;;;;5058028;28;20926;-78
2022/07/26 02:54:20;;;;;;;6.70;2.50;;;;;;;;;;5058952;28;20651;-79
2022/07/26 02:56:48;;;;;;;10.00;2.33;;;;;;;;;;5058435;28;20864;-79
2022/07/26 02:59:15;;;;;;;6.93;2.50;;;;;;;;;;5058296;28;20453;-79
2022/07/26 03:01:43;;;;;;;5.27;2.10;;;;;;;;;;5058741;28;20445;-79
2022/07/26 03:04:10;;;;;;;3.67;1.53;;;;;;;;;;5057373;28;21071;-79
2022/07/26 03:06:40;;;;;;;7.23;2.17;;;;;;;;;;5057888;28;20438;-78
2022/07/26 03:09:07;;;;;;;6.80;1.80;;;;;;;;;;5057214;28;21178;-79
2022/07/26 03:11:35;;;;;;;5.10;1.80;;;;;;;;;;5057938;28;20464;-79
2022/07/26 03:14:03;;;;;;;6.63;1.90;;;;;;;;;;5058919;28;20786;-79
2022/07/26 03:16:30;;;;;;;7.17;2.03;;;;;;;;;;5057755;28;20668;-78
2022/07/26 03:18:58;;;;;;;3.63;1.53;;;;;;;;;;5058400;28;20461;-79
2022/07/26 03:21:25;;;;;;;5.17;1.63;;;;;;;;;;5057552;28;20457;-79
2022/07/26 03:23:54;;;;;;;5.20;1.97;;;;;;;;;;5058554;28;20489;-79
2022/07/26 03:26:22;;;;;;;10.93;2.03;;;;;;;;;;5058959;28;20449;-79
2022/07/26 03:28:49;;;;;;;5.73;2.10;;;;;;;;;;5060262;28;20466;-79
2022/07/26 03:31:17;;;;;;;7.77;2.30;;;;;;;;;;5062488;28;20449;-78
2022/07/26 03:33:44;;;;;;;5.43;1.80;;;;;;;;;;5063008;28;20507;-79
2022/07/26 03:36:12;;;;;;;9.60;2.67;;;;;;;;;;5062728;28;20453;-79
2022/07/26 03:38:39;;;;;;;8.23;3.00;;;;;;;;;;5062817;28;20457;-78
2022/07/26 03:41:08;;;;;;;5.90;1.60;;;;;;;;;;5062412;28;20450;-78
2022/07/26 03:43:37;;;;;;;6.23;1.63;;;;;;;;;;5062469;28;20485;-78
2022/07/26 03:46:05;;;;;;;9.00;2.90;;;;;;;;;;5063080;28;20519;-79
2022/07/26 03:48:33;;;;;;;7.50;1.90;;;;;;;;;;5063008;28;20461;-79
2022/07/26 03:51:00;;;;;;;7.97;2.70;;;;;;;;;;5062024;28;20530;-79
2022/07/26 03:53:28;;;;;;;6.03;2.57;;;;;;;;;;5062123;28;20457;-79
2022/07/26 03:58:42;;;;;;;6.50;2.70;;;;;;;;;;5060626;28;20543;-79
2022/07/26 04:01:10;;;;;;;8.13;2.50;;;;;;;;;;5062710;28;20457;-79
2022/07/26 04:03:37;;;;;;;5.77;2.20;;;;;;;;;;5061927;28;20521;-79
2022/07/26 04:06:05;;;;;;;6.80;2.57;;;;;;;;;;5061063;28;20539;-79
2022/07/26 04:08:33;;;;;;;5.60;1.87;;;;;;;;;;5062491;28;20505;-79
2022/07/26 04:11:00;;;;;;;8.23;2.40;;;;;;;;;;5061355;28;20452;-78
2022/07/26 04:13:28;;;;;;;10.60;2.80;;;;;;;;;;5061736;28;20500;-78
2022/07/26 04:15:57;;;;;;;7.03;2.30;;;;;;;;;;5060553;28;20453;-79
2022/07/26 04:18:25;;;;;;;9.10;2.27;;;;;;;;;;5061844;28;20901;-79
2022/07/26 04:20:52;;;;;;;7.03;2.13;;;;;;;;;;5060803;28;20457;-79
2022/07/26 04:23:20;;;;;;;4.10;2.17;;;;;;;;;;5063538;28;20480;-79
2022/07/26 04:25:47;;;;;;;10.00;2.30;;;;;;;;;;5061516;28;20449;-79
2022/07/26 04:28:15;;;;;;;10.87;3.00;;;;;;;;;;5060864;28;20867;-79
2022/07/26 04:30:43;;;;;;;5.13;1.80;;;;;;;;;;5061384;28;20445;-78
2022/07/26 04:33:12;;;;;;;7.70;2.30;;;;;;;;;;5060556;28;20464;-78
2022/07/26 04:35:40;;;;;;;7.30;2.00;;;;;;;;;;5061664;28;20457;-79
2022/07/26 04:38:08;;;;;;;14.33;2.17;;;;;;;;;;5060927;28;20828;-78
2022/07/26 04:40:35;;;;;;;4.60;1.97;;;;;;;;;;5060470;28;20450;-78
2022/07/26 04:43:03;;;;;;;7.43;2.30;;;;;;;;;;5061825;28;20468;-78
2022/07/26 04:45:31;;;;;;;14.47;3.17;;;;;;;;;;5060453;28;20531;-78
2022/07/26 04:47:59;;;;;;;8.53;2.30;;;;;;;;;;5062302;28;20471;-78
2022/07/26 04:50:28;;;;;;;10.47;3.30;;;;;;;;;;5060309;28;20783;-79
2022/07/26 04:52:56;;;;;;;6.83;2.50;;;;;;;;;;5057399;28;20522;-77
2022/07/26 04:55:24;;;;;;;7.67;2.30;;;;;;;;;;5056437;28;20445;-77
2022/07/26 04:57:51;;;;;;;7.33;2.03;;;;;;;;;;5057762;28;20461;-78
2022/07/26 05:00:23;;;;;;;5.80;2.23;;;;;;;;;;5059335;28;20514;-78
2022/07/26 05:02:51;;;;;;;12.17;2.50;;;;;;;;;;5061566;28;20454;-78
2022/07/26 05:05:19;;;;;;;6.53;2.73;;;;;;;;;;5060415;28;20556;-78
2022/07/26 05:07:50;;;;;;;7.03;2.43;;;;;;;;;;5058629;28;20476;-78
2022/07/26 05:10:18;;;;;;;6.60;2.43;;;;;;;;;;5059898;28;20472;-79
2022/07/26 05:12:46;;;;;;;6.90;2.30;;;;;;;;;;5058591;28;20523;-79
2022/07/26 05:15:14;;;;;;;7.70;1.90;;;;;;;;;;5060643;28;20920;-78
2022/07/26 05:17:42;;;;;;;6.67;2.00;;;;;;;;;;5059470;28;20492;-78
2022/07/26 05:20:11;;;;;;;6.10;2.20;;;;;;;;;;5058295;28;20830;-79
2022/07/26 05:22:39;;;;;;;9.50;3.13;;;;;;;;;;5059746;28;20458;-78
2022/07/26 05:25:08;;;;;;;10.23;2.50;;;;;;;;;;5059674;28;20548;-79
2022/07/26 05:27:37;;;;;;;7.10;2.40;;;;;;;;;;5058607;28;20518;-78
2022/07/26 05:30:05;;;;;;;6.93;2.77;;;;;;;;;;5060123;28;20458;-78
2022/07/26 05:32:32;;;;;;;15.40;2.97;;;;;;;;;;5057737;28;20442;-78
2022/07/26 05:35:00;;;;;;;6.73;2.90;;;;;;;;;;5059528;28;20869;-78
2022/07/26 05:37:28;;;;;;;8.67;3.03;;;;;;;;;;5057850;28;20453;-78
2022/07/26 05:39:55;;;;;;;10.17;2.67;;;;;;;;;;5058949;28;20725;-78
2022/07/26 05:42:25;;;;;;;8.33;2.40;;;;;;;;;;5060789;28;20523;-78
2022/07/26 05:44:53;;;;;;;11.63;2.80;;;;;;;;;;5058947;28;20539;-78
2022/07/26 05:47:20;;;;;;;12.43;2.30;;;;;;;;;;5061087;28;20749;-78
2022/07/26 05:49:48;;;;;;;7.40;2.50;;;;;;;;;;5059998;28;20461;-78
2022/07/26 05:52:15;;;;;;;7.90;3.03;;;;;;;;;;5056656;28;20873;-78
2022/07/26 05:54:43;;;;;;;11.93;3.03;;;;;;;;;;5060449;28;20449;-78
2022/07/26 05:57:11;;;;;;;6.73;2.03;;;;;;;;;;5056854;28;20797;-78
2022/07/26 05:59:40;;;;;;;6.73;2.27;;;;;;;;;;5059274;28;20750;-76
2022/07/26 06:02:08;;;;;;;12.70;4.10;;;;;;;;;;5054783;28;20532;-78
2022/07/26 06:04:36;;;;;;;6.67;2.00;;;;;;;;;;5044029;28;20861;-77
2022/07/26 06:07:03;;;;;;;6.00;2.60;;;;;;;;;;5043292;28;20450;-78
2022/07/26 06:09:31;;;;;;;7.20;2.57;;;;;;;;;;5038137;28;20524;-78
2022/07/26 06:11:59;;;;;;;4.23;2.63;;;;;;;;;;5042645;28;20457;-78
2022/07/26 06:14:26;;;;;;;4.90;3.07;;;;;;;;;;5056191;28;20652;-78
2022/07/26 06:16:55;;;;;;;7.87;2.50;;;;;;;;;;5060060;28;20933;-78
2022/07/26 06:19:23;;;;;;;7.60;2.50;;;;;;;;;;5046941;28;20524;-78
2022/07/26 06:21:51;;;;;;;7.80;2.80;;;;;;;;;;5045634;28;20841;-78
2022/07/26 06:24:19;;;;;;;12.30;3.20;;;;;;;;;;5041829;28;20931;-78
2022/07/26 06:26:49;;;;;;;6.27;3.20;;;;;;;;;;5059362;28;20453;-78
2022/07/26 06:29:17;;;;;;;8.77;3.30;;;;;;;;;;5059550;28;20511;-78
2022/07/26 06:31:44;;;;;;;11.37;3.17;;;;;;;;;;5058177;28;20496;-78
2022/07/26 06:34:13;;;;;;;9.00;3.10;;;;;;;;;;5038514;28;20520;-78
2022/07/26 06:36:43;;;;;;;11.30;3.63;;;;;;;;;;5037936;28;20459;-78
2022/07/26 06:39:10;;;;;;;6.97;3.37;;;;;;;;;;5041216;28;20434;-77
2022/07/26 06:41:38;;;;;;;7.77;2.93;;;;;;;;;;5048780;28;20449;-78
2022/07/26 06:44:06;;;;;;;7.70;3.40;;;;;;;;;;5053742;28;20473;-78
2022/07/26 06:46:34;;;;;;;5.07;3.10;;;;;;;;;;5040544;28;20475;-78
2022/07/26 06:49:01;;;;;;;5.17;3.40;;;;;;;;;;5045932;28;20961;-77
2022/07/26 06:51:30;;;;;;;7.73;3.87;;;;;;;;;;5044717;28;20487;-78
2022/07/26 06:53:58;;;;;;;5.57;3.23;;;;;;;;;;5048623;28;20851;-78
2022/07/26 06:56:26;;;;;;;7.17;3.27;;;;;;;;;;5050454;28;20488;-78
2022/07/26 06:58:56;;;;;;;6.50;2.60;;;;;;;;;;5052513;28;20783;-77
2022/07/26 07:01:23;;;;;;;5.40;3.70;;;;;;;;;;5052400;28;20462;-77
2022/07/26 07:03:51;;;;;;;6.60;3.10;;;;;;;;;;5049301;28;20477;-78
2022/07/26 07:06:19;;;;;;;10.90;4.00;;;;;;;;;;5055432;28;20454;-78
2022/07/26 07:08:49;;;;;;;11.50;3.80;;;;;;;;;;5048820;28;20525;-78
2022/07/26 07:11:17;;;;;;;6.53;2.87;;;;;;;;;;5049856;28;20466;-78
2022/07/26 07:13:45;;;;;;;12.00;2.70;;;;;;;;;;5046039;28;20458;-78
2022/07/26 07:16:13;;;;;;;7.83;2.00;;;;;;;;;;5050447;28;20469;-78
2022/07/26 07:18:40;;;;;;;6.40;2.50;;;;;;;;;;5055851;28;21099;-78
2022/07/26 07:21:09;;;;;;;9.70;2.10;;;;;;;;;;5051543;28;20466;-78
2022/07/26 07:23:38;;;;;;;6.93;2.37;;;;;;;;;;5047737;28;20453;-77
2022/07/26 07:26:07;;;;;;;5.13;2.00;;;;;;;;;;5054250;28;20489;-80
2022/07/26 07:28:37;;;;;;;4.10;1.50;;;;;;;;;;5050339;28;20483;-78
2022/07/26 07:31:06;;;;;;;5.40;2.27;;;;;;;;;;5053703;28;20550;-78
2022/07/26 07:33:36;;;;;;;5.17;2.53;;;;;;;;;;5042863;28;20890;-80
2022/07/26 07:36:04;;;;;;;4.20;1.70;;;;;;;;;;5048675;28;20450;-79
2022/07/26 07:41:15;;;;;;;8.57;2.07;;;;;;;;;;5043157;28;20939;-77
2022/07/26 07:43:43;;;;;;;4.00;1.40;;;;;;;;;;5054152;28;20433;-78
2022/07/26 07:46:11;;;;;;;5.03;1.90;;;;;;;;;;5051845;28;20481;-78
2022/07/26 07:48:40;;;;;;;4.60;1.90;;;;;;;;;;5058923;28;20437;-79
2022/07/26 07:51:08;;;;;;;5.43;1.93;;;;;;;;;;5048263;28;20464;-79
2022/07/26 07:53:38;;;;;;;7.73;1.80;;;;;;;;;;5050367;28;20442;-80
2022/07/26 07:56:06;;;;;;;2.43;1.30;;;;;;;;;;5052671;28;20547;-77
2022/07/26 07:58:38;;;;;;;4.17;1.70;;;;;;;;;;5055172;28;20545;-79
2022/07/26 08:01:05;;;;;;;4.67;1.70;;;;;;;;;;5054522;28;20473;-79
2022/07/26 08:03:34;;;;;;;3.80;1.80;;;;;;;;;;5043651;28;20897;-79
2022/07/26 08:06:02;;;;;;;4.23;1.70;;;;;;;;;;5050882;28;20550;-79
2022/07/26 08:08:30;;;;;;;5.80;1.40;;;;;;;;;;5049879;28;20458;-79
2022/07/26 08:10:58;;;;;;;3.10;1.00;;;;;;;;;;5044249;28;20477;-79
2022/07/26 08:13:25;;;;;;;4.07;1.77;;;;;;;;;;5051211;28;20458;-76
2022/07/26 08:15:55;;;;;;;3.80;1.70;;;;;;;;;;5054725;28;20461;-79
2022/07/26 08:18:23;;;;;;;4.17;1.30;;;;;;;;;;5060440;28;20469;-79
2022/07/26 08:20:51;;;;;;;3.60;1.50;;;;;;;;;;5057546;28;20532;-78
2022/07/26 08:23:19;;;;;;;2.90;1.47;;;;;;;;;;5059602;28;20463;-79
2022/07/26 08:25:51;;;;;;;2.30;1.00;;;;;;;;;;5058949;28;20512;-78
2022/07/26 08:28:22;;;;;;;4.63;1.30;;;;;;;;;;5050748;28;20981;-78
2022/07/26 08:30:50;;;;;;;5.70;0.90;;;;;;;;;;5053090;28;20516;-79
2022/07/26 08:33:20;;;;;;;2.53;0.80;;;;;;;;;;5056427;28;20457;-78
2022/07/26 08:35:48;;;;;;;2.13;0.90;;;;;;;;;;5043998;28;20526;-78
2022/07/26 08:38:16;;;;;;;3.13;0.73;;;;;;;;;;5055593;28;20477;-79
2022/07/26 08:40:44;;;;;;;2.13;0.70;;;;;;;;;;5051884;28;20931;-78
2022/07/26 08:43:12;;;;;;;3.63;1.00;;;;;;;;;;5054132;28;20488;-78
2022/07/26 08:45:40;;;;;;;6.37;1.00;;;;;;;;;;5049024;28;20492;-79
2022/07/26 08:48:12;;;;;;;1.47;0.63;;;;;;;;;;5055590;28;20492;-79
2022/07/26 08:50:44;;;;;;;2.60;0.87;;;;;;;;;;5061837;28;20463;-78
2022/07/26 08:55:57;;;;;;;3.13;0.80;;;;;;;;;;5050458;28;20469;-78
2022/07/26 08:58:27;;;;;;;1.70;0.60;;;;;;;;;;5041462;28;20474;-79
2022/07/26 09:01:04;;;;;;;2.33;0.70;;;;;;;;;;5057946;28;20460;-79
2022/07/26 09:03:32;;;;;;;1.80;0.63;;;;;;;;;;5051891;28;20495;-78
2022/07/26 09:06:20;;;;;;;2.57;0.83;;;;;;;;;;5055199;28;20517;-77
2022/07/26 09:08:53;;;;;;;1.40;0.50;;;;;;;;;;5049493;28;20502;-78
2022/07/26 09:11:28;;;;;;;1.70;0.93;;;;;;;;;;5044874;28;20462;-77
2022/07/26 09:13:57;;;;;;;1.87;0.80;;;;;;;;;;5050622;28;20468;-78
2022/07/26 09:16:24;;;;;;;2.33;0.60;;;;;;;;;;5058280;28;20496;-79
2022/07/26 09:19:23;;;;;;;2.20;0.77;;;;;;;;;;5051851;28;20577;-80
2022/07/26 09:21:52;;;;;;;1.83;0.60;;;;;;;;;;5050955;28;20498;-79
2022/07/26 09:24:37;;;;;;;3.53;0.90;;;;;;;;;;5049570;28;20462;-79
2022/07/26 09:27:08;;;;;;;2.40;0.67;;;;;;;;;;5048043;28;20472;-78
2022/07/26 09:29:49;;;;;;;2.23;0.70;;;;;;;;;;5058139;28;20519;-79
2022/07/26 09:32:18;;;;;;;2.53;0.70;;;;;;;;;;5040804;28;20449;-79
2022/07/26 09:34:47;;;;;;;3.40;1.40;;;;;;;;;;5054592;28;20458;-78
2022/07/26 09:37:15;;;;;;;3.17;0.97;;;;;;;;;;5056756;28;20458;-78
2022/07/26 09:39:56;;;;;;;2.00;0.80;;;;;;;;;;5044532;28;20540;-78
2022/07/26 09:42:28;;;;;;;1.97;0.60;;;;;;;;;;5053637;28;20846;-78
2022/07/26 09:44:56;;;;;;;2.87;0.70;;;;;;;;;;5045246;28;20482;-78
2022/07/26 09:47:37;;;;;;;3.37;0.80;;;;;;;;;;5053496;28;20828;-79
2022/07/26 09:50:15;;;;;;;3.07;0.90;;;;;;;;;;5044284;28;20484;-78
2022/07/26 09:52:57;;;;;;;4.10;0.90;;;;;;;;;;5040922;28;20584;-77
2022/07/26 09:55:25;;;;;;;3.20;0.80;;;;;;;;;;5048412;28;20526;-77
2022/07/26 09:57:54;;;;;;;2.40;0.80;;;;;;;;;;5052171;28;20511;-77
2022/07/26 10:00:24;;;;;;;2.43;0.60;;;;;;;;;;5046265;28;20458;-79
2022/07/26 10:02:52;;;;;;;2.10;0.80;;;;;;;;;;5047588;28;20461;-78
2022/07/26 10:05:21;;;;;;;1.57;0.70;;;;;;;;;;5044049;28;20545;-77
2022/07/26 10:08:01;;;;;;;2.23;0.90;;;;;;;;;;5046567;28;20515;-77
2022/07/26 10:10:31;;;;;;;1.50;0.50;;;;;;;;;;5057816;28;20473;-78
2022/07/26 10:13:01;;;;;;;1.50;0.60;;;;;;;;;;5055167;28;20896;-78
2022/07/26 10:15:47;;;;;;;1.90;0.60;;;;;;;;;;5050358;28;20550;-79
2022/07/26 10:18:32;;;;;;;2.70;0.77;;;;;;;;;;5047984;28;20500;-78
2022/07/26 10:21:03;;;;;;;2.83;0.67;;;;;;;;;;5042465;28;20530;-76
2022/07/26 10:23:55;;;;;;;1.97;0.90;;;;;;;;;;5054157;28;20543;-78
2022/07/26 10:30:10;;;;;;;1.70;0.70;;;;;;;;;;5049576;28;20457;-78
2022/07/26 10:33:15;;;;;;;2.40;0.70;;;;;;;;;;5041541;28;20459;-77
2022/07/26 10:35:57;;;;;;;2.10;1.10;;;;;;;;;;5043097;28;20458;-78
2022/07/26 10:38:45;;;;;;;1.80;0.67;;;;;;;;;;5047879;28;20476;-78
2022/07/26 10:41:33;;;;;;;1.77;0.60;;;;;;;;;;5042429;28;20481;-77
2022/07/26 10:44:18;;;;;;;3.40;0.80;;;;;;;;;;5049439;28;20453;-77
2022/07/26 10:47:06;;;;;;;3.30;0.70;;;;;;;;;;5046330;28;20477;-79
2022/07/26 10:49:37;;;;;;;1.60;0.50;;;;;;;;;;5045481;28;20488;-79
2022/07/26 10:52:10;;;;;;;2.73;0.70;;;;;;;;;;5046594;28;20881;-79
2022/07/26 10:55:05;;;;;;;6.63;3.83;;;;;;;;;;5043304;28;20473;-78
2022/07/26 10:57:33;;;;;;;4.43;0.90;;;;;;;;;;5012666;28;20462;-78
2022/07/26 11:00:01;;;;;;;2.83;0.80;;;;;;;;;;5044944;28;20538;-78
2022/07/26 11:02:31;;;;;;;2.27;0.83;;;;;;;;;;5047886;28;20552;-78
2022/07/26 11:05:02;;;;;;;1.80;0.60;;;;;;;;;;5042745;28;20472;-78
2022/07/26 11:07:31;;;;;;;3.00;1.50;;;;;;;;;;5046433;28;20853;-75
2022/07/26 11:10:09;;;;;;;3.70;0.83;;;;;;;;;;5045901;28;20445;-77
2022/07/26 11:12:41;;;;;;;2.97;0.60;;;;;;;;;;5050733;28;20450;-79
2022/07/26 11:15:19;;;;;;;2.23;0.80;;;;;;;;;;5051335;28;20450;-79
2022/07/26 11:17:47;;;;;;;3.63;0.93;;;;;;;;;;5049865;28;20437;-77
2022/07/26 11:20:26;;;;;;;3.80;0.70;;;;;;;;;;5047729;28;20454;-79
2022/07/26 11:22:53;;;;;;;2.67;0.60;;;;;;;;;;5053503;28;20511;-77
2022/07/26 11:25:22;;;;;;;4.53;1.00;;;;;;;;;;5040810;28;20474;-77
2022/07/26 11:28:03;;;;;;;4.90;0.90;;;;;;;;;;5050898;28;20560;-79
2022/07/26 11:30:30;;;;;;;1.60;0.60;;;;;;;;;;5045587;28;20465;-77
2022/07/26 11:32:58;;;;;;;3.80;0.97;;;;;;;;;;5051864;28;20461;-78
2022/07/26 11:35:27;;;;;;;2.33;0.73;;;;;;;;;;5047931;28;20438;-78
2022/07/26 11:37:55;;;;;;;4.47;1.20;;;;;;;;;;5038723;28;20462;-79
2022/07/26 11:40:45;;;;;;;2.20;0.63;;;;;;;;;;5041247;28;20469;-80
2022/07/26 11:43:13;;;;;;;2.23;0.67;;;;;;;;;;5045255;28;20656;-78
2022/07/26 11:45:41;;;;;;;3.10;0.70;;;;;;;;;;5044319;28;20489;-78
2022/07/26 11:48:08;;;;;;;3.97;0.67;;;;;;;;;;5055696;28;20538;-78
2022/07/26 11:50:40;;;;;;;4.37;1.13;;;;;;;;;;5051163;28;20480;-77
2022/07/26 11:53:21;;;;;;;2.77;0.90;;;;;;;;;;5055983;28;20493;-77
2022/07/26 11:55:48;;;;;;;6.73;0.90;;;;;;;;;;5053242;28;20755;-77
2022/07/26 11:58:16;;;;;;;4.70;1.00;;;;;;;;;;5039677;28;20461;-80
2022/07/26 12:00:48;;;;;;;4.00;0.90;;;;;;;;;;5048346;28;20446;-78
2022/07/26 12:03:16;;;;;;;2.40;0.60;;;;;;;;;;5040266;28;20454;-80
2022/07/26 12:06:01;;;;;;;5.77;1.00;;;;;;;;;;5056397;28;20559;-79
2022/07/26 12:08:39;;;;;;;7.87;1.10;;;;;;;;;;5060922;28;20472;-78
2022/07/26 12:11:06;;;;;;;3.17;1.30;;;;;;;;;;5055683;28;20512;-80
2022/07/26 12:13:48;;;;;;;4.63;0.83;;;;;;;;;;5059678;28;20711;-78
2022/07/26 12:16:30;;;;;;;3.43;0.70;;;;;;;;;;5058635;28;20442;-80
2022/07/26 12:18:59;;;;;;;2.23;0.90;;;;;;;;;;5059062;28;20515;-78
2022/07/26 12:21:40;;;;;;;4.17;2.47;;;;;;;;;;5059210;28;20507;-80
2022/07/26 12:24:12;;;;;;;3.03;1.17;;;;;;;;;;5052501;28;20465;-81
2022/07/26 12:26:40;;;;;;;3.37;0.90;;;;;;;;;;5049967;28;20580;-79
2022/07/26 12:32:01;;;;;;;4.17;1.23;;;;;;;;;;5052555;28;20933;-79
2022/07/26 12:34:29;;;;;;;5.07;1.00;;;;;;;;;;5060522;28;20496;-80
2022/07/26 12:37:07;;;;;;;2.63;0.77;;;;;;;;;;5061542;28;20442;-80
2022/07/26 12:39:36;;;;;;;5.30;1.37;;;;;;;;;;5058014;28;20523;-78
2022/07/26 12:42:19;;;;;;;7.07;1.63;;;;;;;;;;5047386;28;20465;-79
2022/07/26 12:44:47;;;;;;;2.47;0.73;;;;;;;;;;5044962;28;20465;-79
2022/07/26 12:47:14;;;;;;;3.10;1.00;;;;;;;;;;5063124;28;20485;-79
2022/07/26 12:49:45;;;;;;;5.80;1.10;;;;;;;;;;5059978;28;20519;-78
2022/07/26 12:52:15;;;;;;;1.83;0.70;;;;;;;;;;5062095;28;20519;-79
2022/07/26 12:54:43;;;;;;;3.63;1.00;;;;;;;;;;5060676;28;20469;-79
2022/07/26 12:57:12;;;;;;;3.00;1.20;;;;;;;;;;5060574;28;20512;-79
2022/07/26 12:59:41;;;;;;;3.57;1.30;;;;;;;;;;5057945;28;20742;-81
2022/07/26 13:02:09;;;;;;;5.33;1.67;;;;;;;;;;5059010;28;20445;-79
2022/07/26 13:04:37;;;;;;;5.97;1.30;;;;;;;;;;5065364;28;20449;-78
2022/07/26 13:07:05;;;;;;;9.83;1.10;;;;;;;;;;5056296;28;20573;-78
2022/07/26 13:09:38;;;;;;;7.17;1.30;;;;;;;;;;5055319;28;20504;-77
2022/07/26 13:12:06;;;;;;;5.60;1.53;;;;;;;;;;5053324;28;20755;-79
2022/07/26 13:14:35;;;;;;;2.57;0.90;;;;;;;;;;5052011;28;20796;-80
2022/07/26 13:17:02;;;;;;;6.27;1.33;;;;;;;;;;5059339;28;20434;-80
2022/07/26 13:19:31;;;;;;;5.23;1.37;;;;;;;;;;5057590;28;20457;-79
2022/07/26 13:21:59;;;;;;;3.60;1.23;;;;;;;;;;5057881;28;20459;-79
2022/07/26 13:24:30;;;;;;;3.60;1.10;;;;;;;;;;5054920;28;20528;-80
2022/07/26 13:27:07;;;;;;;2.73;1.10;;;;;;;;;;5050516;28;20568;-81
2022/07/26 13:29:35;;;;;;;5.87;1.70;;;;;;;;;;5051927;28;20525;-82
2022/07/26 13:32:03;;;;;;;4.90;1.70;;;;;;;;;;5052248;28;20454;-80
2022/07/26 13:34:32;;;;;;;5.23;2.57;;;;;;;;;;5056515;28;20451;-79
2022/07/26 13:37:03;;;;;;;3.60;1.13;;;;;;;;;;5049944;28;21102;-79
2022/07/26 13:39:31;;;;;;;6.53;1.73;;;;;;;;;;5058264;28;20465;-80
2022/07/26 13:42:00;;;;;;;4.00;1.20;;;;;;;;;;5058294;28;20456;-80
2022/07/26 13:44:27;;;;;;;3.70;1.40;;;;;;;;;;5055290;28;20451;-81
2022/07/26 13:46:55;;;;;;;4.53;1.60;;;;;;;;;;5057336;28;20492;-80
2022/07/26 13:49:28;;;;;;;7.53;1.50;;;;;;;;;;5060228;28;20454;-77
2022/07/26 13:51:58;;;;;;;4.63;1.43;;;;;;;;;;5052243;28;20493;-78
2022/07/26 13:54:27;;;;;;;6.37;1.23;;;;;;;;;;5048978;28;20465;-80
2022/07/26 13:56:57;;;;;;;6.13;1.17;;;;;;;;;;5055104;28;20512;-80
2022/07/26 13:59:28;;;;;;;3.20;1.00;;;;;;;;;;5057220;28;20462;-79
2022/07/26 14:02:03;;;;;;;7.73;1.77;;;;;;;;;;5058701;28;20461;-77
2022/07/26 14:04:33;;;;;;;4.80;1.20;;;;;;;;;;5052985;28;20489;-78
2022/07/26 14:07:00;;;;;;;4.03;1.33;;;;;;;;;;5042536;28;20535;-79
2022/07/26 14:09:29;;;;;;;5.00;1.43;;;;;;;;;;5052656;28;20461;-78
2022/07/26 14:11:56;;;;;;;10.17;1.70;;;;;;;;;;5057226;28;20445;-78
2022/07/26 14:14:24;;;;;;;6.73;1.80;;;;;;;;;;5059721;28;20454;-78
2022/07/26 14:16:54;;;;;;;3.10;1.20;;;;;;;;;;5062573;28;20473;-78
2022/07/26 14:19:31;;;;;;;6.40;1.33;;;;;;;;;;5060759;28;20483;-78
2022/07/26 14:21:59;;;;;;;6.67;1.50;;;;;;;;;;5057556;28;20489;-79
2022/07/26 14:24:27;;;;;;;5.70;1.40;;;;;;;;;;5057348;28;20468;-80
2022/07/26 14:26:55;;;;;;;3.63;1.07;;;;;;;;;;5057950;28;20843;-81
2022/07/26 14:29:23;;;;;;;5.97;1.67;;;;;;;;;;5060807;28;20457;-82
2022/07/26 14:31:50;;;;;;;4.60;1.23;;;;;;;;;;5058828;28;20511;-79
2022/07/26 14:34:19;;;;;;;6.10;1.30;;;;;;;;;;5055261;28;20445;-76
2022/07/26 14:36:47;;;;;;;5.63;3.80;;;;;;;;;;5056311;28;20522;-81
2022/07/26 14:39:15;;;;;;;3.60;1.50;;;;;;;;;;5056070;28;20442;-79
2022/07/26 14:41:42;;;;;;;5.57;1.00;;;;;;;;;;5059433;28;20492;-79
2022/07/26 14:44:11;;;;;;;5.93;1.40;;;;;;;;;;5055063;28;20456;-78
2022/07/26 14:46:38;;;;;;;2.93;1.30;;;;;;;;;;5052773;28;20932;-78
2022/07/26 14:49:06;;;;;;;5.40;1.30;;;;;;;;;;5051080;28;20825;-78
2022/07/26 14:51:36;;;;;;;4.77;1.40;;;;;;;;;;5055029;28;20445;-78
2022/07/26 14:54:04;;;;;;;8.03;1.53;;;;;;;;;;5049546;28;20752;-80
2022/07/26 14:56:32;;;;;;;3.17;1.00;;;;;;;;;;5040526;28;20846;-83
2022/07/26 14:59:00;;;;;;;3.20;1.00;;;;;;;;;;5055524;28;20512;-80
2022/07/26 15:01:28;;;;;;;4.83;1.20;;;;;;;;;;5056998;28;20446;-80
2022/07/26 15:03:55;;;;;;;3.83;1.10;;;;;;;;;;5053492;28;20454;-79
2022/07/26 15:06:23;;;;;;;6.70;1.93;;;;;;;;;;5056304;28;20530;-79
2022/07/26 15:08:52;;;;;;;4.60;1.20;;;;;;;;;;5046467;28;20458;-81
2022/07/26 15:11:20;;;;;;;4.07;1.00;;;;;;;;;;5055227;28;20608;-81
2022/07/26 15:13:50;;;;;;;6.63;1.03;;;;;;;;;;5053348;28;20499;-79